sensor_id;sensor_type;location;lat;lon;timestamp;P1;durP1;ratioP1;P2;durP2;ratioP2
62915;SDS011;49010;51.230;-2.306;2023-01-29T00:00:44;26.27;;;16.80;;
62915;SDS011;49010;51.230;-2.306;2023-01-29T00:04:26;27.17;;;15.38;;
62915;SDS011;49010;51.230;-2.306;2023-01-29T00:08:08;28.35;;;15.65;;
62915;SDS011;49010;51.230;-2.306;2023-01-29T00:11:50;25.30;;;15.73;;
62915;SDS011;49010;51.230;-2.306;2023-01-29T00:15:32;28.60;;;15.52;;
62915;SDS011;49010;51.230;-2.306;2023-01-29T00:19:14;28.50;;;16.50;;
62915;SDS011;49010;51.230;-2.306;2023-01-29T00:22:56;33.13;;;16.52;;
62915;SDS011;49010;51.230;-2.306;2023-01-29T00:26:37;27.15;;;15.95;;
62915;SDS011;49010;51.230;-2.306;2023-01-29T00:30:20;26.77;;;15.85;;
62915;SDS011;49010;51.230;-2.306;2023-01-29T00:34:02;30.95;;;17.10;;
62915;SDS011;49010;51.230;-2.306;2023-01-29T00:37:44;31.05;;;16.80;;
62915;SDS011;49010;51.230;-2.306;2023-01-29T00:41:27;27.05;;;15.32;;
62915;SDS011;49010;51.230;-2.306;2023-01-29T00:45:29;28.80;;;15.73;;
62915;SDS011;49010;51.230;-2.306;2023-01-29T00:49:11;30.10;;;17.17;;
62915;SDS011;49010;51.230;-2.306;2023-01-29T00:52:53;30.17;;;17.25;;
62915;SDS011;49010;51.230;-2.306;2023-01-29T00:56:35;29.25;;;15.82;;
62915;SDS011;49010;51.230;-2.306;2023-01-29T01:00:18;27.30;;;16.02;;
62915;SDS011;49010;51.230;-2.306;2023-01-29T01:04:00;31.27;;;17.90;;
62915;SDS011;49010;51.230;-2.306;2023-01-29T01:07:52;28.05;;;16.58;;
62915;SDS011;49010;51.230;-2.306;2023-01-29T01:11:34;26.67;;;15.98;;
62915;SDS011;49010;51.230;-2.306;2023-01-29T01:15:17;28.20;;;17.15;;
62915;SDS011;49010;51.230;-2.306;2023-01-29T01:18:59;26.63;;;15.63;;
62915;SDS011;49010;51.230;-2.306;2023-01-29T01:22:42;29.20;;;16.05;;
62915;SDS011;49010;51.230;-2.306;2023-01-29T01:26:24;27.33;;;15.98;;
62915;SDS011;49010;51.230;-2.306;2023-01-29T01:30:07;30.58;;;16.88;;
62915;SDS011;49010;51.230;-2.306;2023-01-29T01:33:51;29.35;;;16.20;;
62915;SDS011;49010;51.230;-2.306;2023-01-29T01:37:34;30.40;;;17.10;;
62915;SDS011;49010;51.230;-2.306;2023-01-29T01:41:18;30.27;;;17.00;;
62915;SDS011;49010;51.230;-2.306;2023-01-29T01:45:03;28.38;;;16.50;;
62915;SDS011;49010;51.230;-2.306;2023-01-29T01:48:50;26.67;;;16.33;;
62915;SDS011;49010;51.230;-2.306;2023-01-29T01:52:37;29.52;;;16.83;;
62915;SDS011;49010;51.230;-2.306;2023-01-29T01:56:29;35.08;;;19.58;;
62915;SDS011;49010;51.230;-2.306;2023-01-29T02:00:20;30.77;;;16.73;;
62915;SDS011;49010;51.230;-2.306;2023-01-29T02:04:07;28.65;;;16.75;;
62915;SDS011;49010;51.230;-2.306;2023-01-29T02:08:11;26.02;;;16.00;;
62915;SDS011;49010;51.230;-2.306;2023-01-29T02:12:14;29.85;;;16.85;;
62915;SDS011;49010;51.230;-2.306;2023-01-29T02:15:58;28.23;;;16.50;;
62915;SDS011;49010;51.230;-2.306;2023-01-29T02:19:44;30.75;;;16.55;;
62915;SDS011;49010;51.230;-2.306;2023-01-29T02:24:18;30.63;;;18.53;;
62915;SDS011;49010;51.230;-2.306;2023-01-29T02:32:08;25.65;;;14.68;;
62915;SDS011;49010;51.230;-2.306;2023-01-29T02:35:58;29.40;;;16.48;;
62915;SDS011;49010;51.230;-2.306;2023-01-29T02:40:14;23.05;;;15.50;;
62915;SDS011;49010;51.230;-2.306;2023-01-29T02:44:09;27.65;;;15.57;;
62915;SDS011;49010;51.230;-2.306;2023-01-29T02:48:21;27.77;;;15.18;;
62915;SDS011;49010;51.230;-2.306;2023-01-29T02:52:10;30.17;;;15.95;;
62915;SDS011;49010;51.230;-2.306;2023-01-29T02:59:57;22.88;;;14.32;;
62915;SDS011;49010;51.230;-2.306;2023-01-29T03:03:48;23.80;;;15.05;;
62915;SDS011;49010;51.230;-2.306;2023-01-29T03:07:36;23.67;;;14.10;;
62915;SDS011;49010;51.230;-2.306;2023-01-29T03:11:22;26.90;;;15.35;;
62915;SDS011;49010;51.230;-2.306;2023-01-29T03:15:08;26.95;;;14.15;;
62915;SDS011;49010;51.230;-2.306;2023-01-29T03:19:13;26.88;;;14.35;;
62915;SDS011;49010;51.230;-2.306;2023-01-29T03:23:09;24.85;;;14.27;;
62915;SDS011;49010;51.230;-2.306;2023-01-29T03:26:54;24.98;;;13.18;;
62915;SDS011;49010;51.230;-2.306;2023-01-29T03:30:59;24.13;;;14.18;;
62915;SDS011;49010;51.230;-2.306;2023-01-29T03:35:04;25.90;;;14.52;;
62915;SDS011;49010;51.230;-2.306;2023-01-29T03:38:49;28.40;;;15.25;;
62915;SDS011;49010;51.230;-2.306;2023-01-29T03:42:43;23.13;;;13.88;;
62915;SDS011;49010;51.230;-2.306;2023-01-29T04:07:07;27.00;;;14.77;;
62915;SDS011;49010;51.230;-2.306;2023-01-29T04:10:56;26.08;;;13.50;;
62915;SDS011;49010;51.230;-2.306;2023-01-29T04:14:42;26.00;;;14.15;;
62915;SDS011;49010;51.230;-2.306;2023-01-29T04:18:26;23.80;;;14.55;;
62915;SDS011;49010;51.230;-2.306;2023-01-29T04:22:14;23.48;;;13.23;;
62915;SDS011;49010;51.230;-2.306;2023-01-29T04:50:02;23.67;;;13.80;;
62915;SDS011;49010;51.230;-2.306;2023-01-29T04:53:58;20.60;;;11.40;;
62915;SDS011;49010;51.230;-2.306;2023-01-29T05:01:50;23.92;;;13.13;;
62915;SDS011;49010;51.230;-2.306;2023-01-29T05:05:33;22.48;;;12.68;;
62915;SDS011;49010;51.230;-2.306;2023-01-29T05:09:16;24.33;;;12.20;;
62915;SDS011;49010;51.230;-2.306;2023-01-29T05:12:59;27.33;;;13.70;;
62915;SDS011;49010;51.230;-2.306;2023-01-29T05:16:48;24.35;;;13.48;;
62915;SDS011;49010;51.230;-2.306;2023-01-29T05:20:33;21.55;;;13.05;;
62915;SDS011;49010;51.230;-2.306;2023-01-29T05:24:22;24.17;;;13.63;;
62915;SDS011;49010;51.230;-2.306;2023-01-29T05:28:05;21.60;;;12.27;;
62915;SDS011;49010;51.230;-2.306;2023-01-29T05:31:59;21.30;;;12.15;;
62915;SDS011;49010;51.230;-2.306;2023-01-29T05:35:41;22.02;;;12.40;;
62915;SDS011;49010;51.230;-2.306;2023-01-29T05:39:23;21.73;;;12.43;;
62915;SDS011;49010;51.230;-2.306;2023-01-29T05:43:06;19.13;;;11.38;;
62915;SDS011;49010;51.230;-2.306;2023-01-29T05:47:01;19.98;;;11.82;;
62915;SDS011;49010;51.230;-2.306;2023-01-29T05:50:43;23.70;;;13.23;;
62915;SDS011;49010;51.230;-2.306;2023-01-29T05:54:24;19.42;;;10.93;;
62915;SDS011;49010;51.230;-2.306;2023-01-29T05:58:06;21.95;;;11.75;;
62915;SDS011;49010;51.230;-2.306;2023-01-29T06:01:48;23.92;;;12.18;;
62915;SDS011;49010;51.230;-2.306;2023-01-29T06:05:30;22.92;;;11.75;;
62915;SDS011;49010;51.230;-2.306;2023-01-29T06:09:12;21.48;;;10.90;;
62915;SDS011;49010;51.230;-2.306;2023-01-29T06:12:54;21.33;;;11.57;;
62915;SDS011;49010;51.230;-2.306;2023-01-29T06:16:36;21.65;;;11.68;;
62915;SDS011;49010;51.230;-2.306;2023-01-29T06:20:17;18.48;;;11.48;;
62915;SDS011;49010;51.230;-2.306;2023-01-29T06:23:59;24.58;;;11.90;;
62915;SDS011;49010;51.230;-2.306;2023-01-29T06:27:41;20.80;;;11.35;;
62915;SDS011;49010;51.230;-2.306;2023-01-29T06:31:23;21.75;;;12.07;;
62915;SDS011;49010;51.230;-2.306;2023-01-29T06:35:18;21.15;;;11.52;;
62915;SDS011;49010;51.230;-2.306;2023-01-29T06:39:00;24.92;;;12.90;;
62915;SDS011;49010;51.230;-2.306;2023-01-29T06:42:42;25.77;;;11.95;;
62915;SDS011;49010;51.230;-2.306;2023-01-29T06:46:26;20.63;;;11.63;;
62915;SDS011;49010;51.230;-2.306;2023-01-29T06:50:08;25.42;;;12.05;;
62915;SDS011;49010;51.230;-2.306;2023-01-29T06:53:50;19.90;;;11.73;;
62915;SDS011;49010;51.230;-2.306;2023-01-29T06:57:34;19.67;;;10.98;;
62915;SDS011;49010;51.230;-2.306;2023-01-29T07:01:16;20.90;;;12.25;;
62915;SDS011;49010;51.230;-2.306;2023-01-29T07:05:15;18.92;;;11.00;;
62915;SDS011;49010;51.230;-2.306;2023-01-29T07:08:57;25.38;;;12.25;;
62915;SDS011;49010;51.230;-2.306;2023-01-29T07:12:39;22.05;;;11.35;;
62915;SDS011;49010;51.230;-2.306;2023-01-29T07:16:21;23.02;;;12.20;;
62915;SDS011;49010;51.230;-2.306;2023-01-29T07:20:03;20.52;;;11.73;;
62915;SDS011;49010;51.230;-2.306;2023-01-29T07:23:46;20.35;;;11.65;;
62915;SDS011;49010;51.230;-2.306;2023-01-29T07:27:28;20.52;;;11.32;;
62915;SDS011;49010;51.230;-2.306;2023-01-29T07:31:10;19.15;;;10.98;;
62915;SDS011;49010;51.230;-2.306;2023-01-29T07:34:53;17.63;;;10.55;;
62915;SDS011;49010;51.230;-2.306;2023-01-29T07:38:35;21.02;;;11.60;;
62915;SDS011;49010;51.230;-2.306;2023-01-29T07:42:17;18.10;;;9.48;;
62915;SDS011;49010;51.230;-2.306;2023-01-29T07:46:02;18.65;;;9.90;;
62915;SDS011;49010;51.230;-2.306;2023-01-29T07:49:45;16.30;;;8.80;;
62915;SDS011;49010;51.230;-2.306;2023-01-29T07:53:27;20.02;;;9.73;;
62915;SDS011;49010;51.230;-2.306;2023-01-29T07:57:09;15.77;;;8.93;;
62915;SDS011;49010;51.230;-2.306;2023-01-29T08:00:51;17.58;;;10.18;;
62915;SDS011;49010;51.230;-2.306;2023-01-29T08:04:33;20.02;;;9.50;;
62915;SDS011;49010;51.230;-2.306;2023-01-29T08:08:14;13.75;;;8.30;;
62915;SDS011;49010;51.230;-2.306;2023-01-29T08:11:56;17.58;;;8.25;;
62915;SDS011;49010;51.230;-2.306;2023-01-29T08:15:41;14.82;;;8.52;;
62915;SDS011;49010;51.230;-2.306;2023-01-29T08:19:25;13.50;;;7.93;;
62915;SDS011;49010;51.230;-2.306;2023-01-29T08:23:09;12.77;;;7.55;;
62915;SDS011;49010;51.230;-2.306;2023-01-29T08:26:54;15.75;;;8.00;;
62915;SDS011;49010;51.230;-2.306;2023-01-29T08:30:36;13.55;;;7.10;;
62915;SDS011;49010;51.230;-2.306;2023-01-29T08:34:18;12.60;;;7.47;;
62915;SDS011;49010;51.230;-2.306;2023-01-29T08:38:01;15.38;;;8.00;;
62915;SDS011;49010;51.230;-2.306;2023-01-29T08:41:44;12.45;;;7.88;;
62915;SDS011;49010;51.230;-2.306;2023-01-29T08:45:26;10.68;;;6.18;;
62915;SDS011;49010;51.230;-2.306;2023-01-29T08:49:08;10.45;;;6.70;;
62915;SDS011;49010;51.230;-2.306;2023-01-29T08:52:50;12.48;;;6.90;;
62915;SDS011;49010;51.230;-2.306;2023-01-29T08:56:32;10.18;;;5.93;;
62915;SDS011;49010;51.230;-2.306;2023-01-29T09:00:14;9.95;;;5.95;;
62915;SDS011;49010;51.230;-2.306;2023-01-29T09:03:56;9.02;;;5.30;;
62915;SDS011;49010;51.230;-2.306;2023-01-29T09:07:38;10.90;;;5.75;;
62915;SDS011;49010;51.230;-2.306;2023-01-29T09:11:20;10.82;;;6.78;;
62915;SDS011;49010;51.230;-2.306;2023-01-29T09:15:02;9.02;;;5.18;;
62915;SDS011;49010;51.230;-2.306;2023-01-29T09:18:44;8.38;;;5.18;;
62915;SDS011;49010;51.230;-2.306;2023-01-29T09:22:26;7.35;;;4.68;;
62915;SDS011;49010;51.230;-2.306;2023-01-29T09:26:08;8.52;;;5.00;;
62915;SDS011;49010;51.230;-2.306;2023-01-29T09:29:50;9.88;;;5.30;;
62915;SDS011;49010;51.230;-2.306;2023-01-29T09:33:31;9.75;;;4.50;;
62915;SDS011;49010;51.230;-2.306;2023-01-29T09:37:14;7.75;;;4.40;;
62915;SDS011;49010;51.230;-2.306;2023-01-29T09:45:13;6.82;;;4.10;;
62915;SDS011;49010;51.230;-2.306;2023-01-29T09:49:03;5.93;;;3.63;;
62915;SDS011;49010;51.230;-2.306;2023-01-29T09:56:43;6.53;;;4.03;;
62915;SDS011;49010;51.230;-2.306;2023-01-29T10:00:39;8.73;;;3.95;;
62915;SDS011;49010;51.230;-2.306;2023-01-29T10:08:41;6.72;;;3.28;;
62915;SDS011;49010;51.230;-2.306;2023-01-29T10:28:40;5.20;;;3.25;;
62915;SDS011;49010;51.230;-2.306;2023-01-29T10:32:30;6.40;;;3.05;;
62915;SDS011;49010;51.230;-2.306;2023-01-29T10:36:14;4.97;;;3.13;;
62915;SDS011;49010;51.230;-2.306;2023-01-29T10:40:01;3.92;;;2.45;;
62915;SDS011;49010;51.230;-2.306;2023-01-29T10:52:33;4.10;;;2.80;;
62915;SDS011;49010;51.230;-2.306;2023-01-29T10:56:59;7.53;;;3.22;;
62915;SDS011;49010;51.230;-2.306;2023-01-29T11:00:39;4.35;;;3.00;;
62915;SDS011;49010;51.230;-2.306;2023-01-29T11:04:22;5.03;;;3.55;;
62915;SDS011;49010;51.230;-2.306;2023-01-29T11:08:12;4.60;;;3.25;;
62915;SDS011;49010;51.230;-2.306;2023-01-29T11:11:59;5.30;;;3.42;;
62915;SDS011;49010;51.230;-2.306;2023-01-29T11:15:45;5.38;;;3.50;;
62915;SDS011;49010;51.230;-2.306;2023-01-29T11:19:39;5.90;;;3.83;;
62915;SDS011;49010;51.230;-2.306;2023-01-29T11:27:20;4.90;;;3.13;;
62915;SDS011;49010;51.230;-2.306;2023-01-29T11:31:16;4.82;;;2.80;;
62915;SDS011;49010;51.230;-2.306;2023-01-29T11:35:03;6.30;;;3.03;;
62915;SDS011;49010;51.230;-2.306;2023-01-29T11:42:48;4.43;;;2.80;;
62915;SDS011;49010;51.230;-2.306;2023-01-29T11:46:33;5.18;;;3.33;;
62915;SDS011;49010;51.230;-2.306;2023-01-29T11:50:24;3.50;;;2.63;;
62915;SDS011;49010;51.230;-2.306;2023-01-29T11:54:09;5.53;;;3.83;;
62915;SDS011;49010;51.230;-2.306;2023-01-29T11:58:06;4.65;;;3.00;;
62915;SDS011;49010;51.230;-2.306;2023-01-29T12:01:55;3.92;;;2.80;;
62915;SDS011;49010;51.230;-2.306;2023-01-29T12:05:53;3.95;;;2.65;;
62915;SDS011;49010;51.230;-2.306;2023-01-29T12:09:38;4.20;;;2.70;;
62915;SDS011;49010;51.230;-2.306;2023-01-29T12:13:23;4.20;;;2.58;;
62915;SDS011;49010;51.230;-2.306;2023-01-29T12:17:12;3.38;;;2.10;;
62915;SDS011;49010;51.230;-2.306;2023-01-29T12:21:09;3.00;;;2.20;;
62915;SDS011;49010;51.230;-2.306;2023-01-29T12:40:58;2.53;;;1.80;;
62915;SDS011;49010;51.230;-2.306;2023-01-29T12:44:47;4.28;;;2.55;;
62915;SDS011;49010;51.230;-2.306;2023-01-29T12:48:41;4.40;;;2.53;;
62915;SDS011;49010;51.230;-2.306;2023-01-29T12:52:38;2.78;;;1.83;;
62915;SDS011;49010;51.230;-2.306;2023-01-29T12:56:35;4.18;;;2.53;;
62915;SDS011;49010;51.230;-2.306;2023-01-29T13:00:22;3.85;;;1.75;;
62915;SDS011;49010;51.230;-2.306;2023-01-29T13:04:13;2.53;;;1.45;;
62915;SDS011;49010;51.230;-2.306;2023-01-29T13:08:09;2.40;;;1.13;;
62915;SDS011;49010;51.230;-2.306;2023-01-29T13:12:11;1.77;;;1.05;;
62915;SDS011;49010;51.230;-2.306;2023-01-29T13:16:04;1.67;;;1.30;;
62915;SDS011;49010;51.230;-2.306;2023-01-29T13:19:51;1.70;;;0.80;;
62915;SDS011;49010;51.230;-2.306;2023-01-29T13:23:37;1.53;;;0.97;;
62915;SDS011;49010;51.230;-2.306;2023-01-29T13:27:41;2.65;;;1.17;;
62915;SDS011;49010;51.230;-2.306;2023-01-29T13:31:36;2.47;;;1.40;;
62915;SDS011;49010;51.230;-2.306;2023-01-29T13:35:21;1.92;;;1.20;;
62915;SDS011;49010;51.230;-2.306;2023-01-29T13:39:04;1.33;;;0.73;;
62915;SDS011;49010;51.230;-2.306;2023-01-29T13:42:49;1.77;;;1.10;;
62915;SDS011;49010;51.230;-2.306;2023-01-29T13:46:33;1.60;;;1.00;;
62915;SDS011;49010;51.230;-2.306;2023-01-29T13:54:15;0.82;;;0.47;;
62915;SDS011;49010;51.230;-2.306;2023-01-29T13:58:03;2.42;;;0.70;;
62915;SDS011;49010;51.230;-2.306;2023-01-29T14:17:01;2.03;;;1.15;;
62915;SDS011;49010;51.230;-2.306;2023-01-29T14:24:28;1.38;;;0.75;;
62915;SDS011;49010;51.230;-2.306;2023-01-29T14:28:25;1.42;;;0.77;;
62915;SDS011;49010;51.230;-2.306;2023-01-29T14:32:27;1.48;;;0.70;;
62915;SDS011;49010;51.230;-2.306;2023-01-29T14:36:11;2.67;;;1.38;;
62915;SDS011;49010;51.230;-2.306;2023-01-29T14:39:56;2.33;;;0.77;;
62915;SDS011;49010;51.230;-2.306;2023-01-29T14:43:39;0.82;;;0.57;;
62915;SDS011;49010;51.230;-2.306;2023-01-29T14:51:15;1.02;;;0.55;;
62915;SDS011;49010;51.230;-2.306;2023-01-29T14:54:59;1.30;;;0.80;;
62915;SDS011;49010;51.230;-2.306;2023-01-29T14:58:45;0.47;;;0.45;;
62915;SDS011;49010;51.230;-2.306;2023-01-29T15:02:31;0.87;;;0.43;;
62915;SDS011;49010;51.230;-2.306;2023-01-29T15:06:22;0.95;;;0.50;;
62915;SDS011;49010;51.230;-2.306;2023-01-29T15:10:47;1.60;;;0.50;;
62915;SDS011;49010;51.230;-2.306;2023-01-29T15:14:33;2.15;;;0.43;;
62915;SDS011;49010;51.230;-2.306;2023-01-29T15:18:19;3.15;;;0.70;;
62915;SDS011;49010;51.230;-2.306;2023-01-29T15:22:15;2.35;;;0.70;;
62915;SDS011;49010;51.230;-2.306;2023-01-29T15:25:58;1.75;;;0.65;;
62915;SDS011;49010;51.230;-2.306;2023-01-29T15:29:56;1.40;;;0.52;;
62915;SDS011;49010;51.230;-2.306;2023-01-29T15:33:40;1.05;;;0.60;;
62915;SDS011;49010;51.230;-2.306;2023-01-29T15:37:26;2.70;;;0.60;;
62915;SDS011;49010;51.230;-2.306;2023-01-29T15:41:15;1.77;;;0.70;;
62915;SDS011;49010;51.230;-2.306;2023-01-29T15:44:59;2.20;;;0.83;;
62915;SDS011;49010;51.230;-2.306;2023-01-29T15:48:43;1.10;;;0.70;;
62915;SDS011;49010;51.230;-2.306;2023-01-29T15:52:26;1.40;;;0.85;;
62915;SDS011;49010;51.230;-2.306;2023-01-29T15:56:13;2.33;;;1.10;;
62915;SDS011;49010;51.230;-2.306;2023-01-29T16:00:00;2.08;;;1.02;;
62915;SDS011;49010;51.230;-2.306;2023-01-29T16:03:42;2.85;;;1.40;;
62915;SDS011;49010;51.230;-2.306;2023-01-29T16:07:25;2.45;;;1.20;;
62915;SDS011;49010;51.230;-2.306;2023-01-29T16:11:07;4.00;;;1.90;;
62915;SDS011;49010;51.230;-2.306;2023-01-29T16:14:50;6.10;;;1.80;;
62915;SDS011;49010;51.230;-2.306;2023-01-29T16:18:36;3.10;;;1.60;;
62915;SDS011;49010;51.230;-2.306;2023-01-29T16:22:28;5.30;;;1.85;;
62915;SDS011;49010;51.230;-2.306;2023-01-29T16:26:19;3.42;;;1.92;;
62915;SDS011;49010;51.230;-2.306;2023-01-29T16:30:04;5.93;;;2.33;;
62915;SDS011;49010;51.230;-2.306;2023-01-29T16:33:47;4.50;;;1.92;;
62915;SDS011;49010;51.230;-2.306;2023-01-29T16:37:31;3.05;;;2.67;;
62915;SDS011;49010;51.230;-2.306;2023-01-29T16:45:02;5.20;;;2.42;;
62915;SDS011;49010;51.230;-2.306;2023-01-29T16:48:45;3.80;;;1.83;;
62915;SDS011;49010;51.230;-2.306;2023-01-29T16:52:29;4.93;;;1.98;;
62915;SDS011;49010;51.230;-2.306;2023-01-29T16:56:14;2.72;;;1.70;;
62915;SDS011;49010;51.230;-2.306;2023-01-29T17:00:02;4.82;;;2.20;;
62915;SDS011;49010;51.230;-2.306;2023-01-29T17:04:08;3.42;;;2.55;;
62915;SDS011;49010;51.230;-2.306;2023-01-29T17:07:57;4.82;;;2.13;;
62915;SDS011;49010;51.230;-2.306;2023-01-29T17:11:39;5.57;;;3.03;;
62915;SDS011;49010;51.230;-2.306;2023-01-29T17:15:35;5.45;;;3.35;;
62915;SDS011;49010;51.230;-2.306;2023-01-29T17:19:26;5.50;;;2.95;;
62915;SDS011;49010;51.230;-2.306;2023-01-29T17:23:10;9.35;;;3.30;;
62915;SDS011;49010;51.230;-2.306;2023-01-29T17:26:52;6.38;;;3.78;;
62915;SDS011;49010;51.230;-2.306;2023-01-29T17:30:34;9.18;;;4.35;;
62915;SDS011;49010;51.230;-2.306;2023-01-29T17:34:17;7.32;;;3.45;;
62915;SDS011;49010;51.230;-2.306;2023-01-29T17:37:59;8.27;;;2.78;;
62915;SDS011;49010;51.230;-2.306;2023-01-29T17:41:41;4.25;;;2.90;;
62915;SDS011;49010;51.230;-2.306;2023-01-29T17:45:27;5.45;;;3.10;;
62915;SDS011;49010;51.230;-2.306;2023-01-29T17:49:19;7.43;;;2.67;;
62915;SDS011;49010;51.230;-2.306;2023-01-29T17:53:06;4.90;;;3.25;;
62915;SDS011;49010;51.230;-2.306;2023-01-29T17:56:48;10.13;;;3.90;;
62915;SDS011;49010;51.230;-2.306;2023-01-29T18:00:31;7.53;;;4.25;;
62915;SDS011;49010;51.230;-2.306;2023-01-29T18:04:13;9.05;;;3.72;;
62915;SDS011;49010;51.230;-2.306;2023-01-29T18:07:55;8.63;;;3.67;;
62915;SDS011;49010;51.230;-2.306;2023-01-29T18:11:37;4.50;;;2.97;;
62915;SDS011;49010;51.230;-2.306;2023-01-29T18:15:19;6.50;;;3.28;;
62915;SDS011;49010;51.230;-2.306;2023-01-29T18:19:20;6.80;;;4.32;;
62915;SDS011;49010;51.230;-2.306;2023-01-29T18:23:03;10.93;;;5.35;;
62915;SDS011;49010;51.230;-2.306;2023-01-29T18:26:47;9.82;;;3.65;;
62915;SDS011;49010;51.230;-2.306;2023-01-29T18:30:31;7.07;;;3.25;;
62915;SDS011;49010;51.230;-2.306;2023-01-29T18:34:13;8.57;;;3.25;;
62915;SDS011;49010;51.230;-2.306;2023-01-29T18:37:55;9.70;;;3.17;;
62915;SDS011;49010;51.230;-2.306;2023-01-29T18:41:37;6.40;;;2.80;;
62915;SDS011;49010;51.230;-2.306;2023-01-29T18:45:19;6.55;;;2.80;;
62915;SDS011;49010;51.230;-2.306;2023-01-29T18:49:01;6.20;;;2.95;;
62915;SDS011;49010;51.230;-2.306;2023-01-29T18:52:43;12.52;;;3.60;;
62915;SDS011;49010;51.230;-2.306;2023-01-29T18:56:25;5.82;;;2.40;;
62915;SDS011;49010;51.230;-2.306;2023-01-29T19:00:07;4.68;;;1.88;;
62915;SDS011;49010;51.230;-2.306;2023-01-29T19:03:50;5.88;;;1.70;;
62915;SDS011;49010;51.230;-2.306;2023-01-29T19:07:32;6.55;;;2.20;;
62915;SDS011;49010;51.230;-2.306;2023-01-29T19:11:14;5.70;;;2.05;;
62915;SDS011;49010;51.230;-2.306;2023-01-29T19:14:59;9.32;;;3.05;;
62915;SDS011;49010;51.230;-2.306;2023-01-29T19:18:45;5.25;;;2.58;;
62915;SDS011;49010;51.230;-2.306;2023-01-29T19:22:28;5.00;;;2.00;;
62915;SDS011;49010;51.230;-2.306;2023-01-29T19:26:16;6.13;;;2.40;;
62915;SDS011;49010;51.230;-2.306;2023-01-29T19:29:59;8.88;;;1.75;;
62915;SDS011;49010;51.230;-2.306;2023-01-29T19:33:43;5.70;;;2.42;;
62915;SDS011;49010;51.230;-2.306;2023-01-29T19:37:38;10.13;;;3.22;;
62915;SDS011;49010;51.230;-2.306;2023-01-29T19:41:19;6.15;;;3.22;;
62915;SDS011;49010;51.230;-2.306;2023-01-29T19:45:02;8.05;;;3.10;;
62915;SDS011;49010;51.230;-2.306;2023-01-29T19:48:45;7.95;;;3.03;;
62915;SDS011;49010;51.230;-2.306;2023-01-29T19:52:27;5.55;;;3.00;;
62915;SDS011;49010;51.230;-2.306;2023-01-29T19:56:32;9.25;;;3.50;;
62915;SDS011;49010;51.230;-2.306;2023-01-29T20:00:15;9.05;;;3.30;;
62915;SDS011;49010;51.230;-2.306;2023-01-29T20:03:58;9.40;;;3.92;;
62915;SDS011;49010;51.230;-2.306;2023-01-29T20:07:40;11.65;;;4.88;;
62915;SDS011;49010;51.230;-2.306;2023-01-29T20:11:22;9.27;;;3.45;;
62915;SDS011;49010;51.230;-2.306;2023-01-29T20:15:05;8.38;;;3.85;;
62915;SDS011;49010;51.230;-2.306;2023-01-29T20:18:47;8.18;;;3.50;;
62915;SDS011;49010;51.230;-2.306;2023-01-29T20:22:30;9.77;;;2.70;;
62915;SDS011;49010;51.230;-2.306;2023-01-29T20:26:13;6.63;;;2.05;;
62915;SDS011;49010;51.230;-2.306;2023-01-29T20:29:56;6.85;;;2.65;;
62915;SDS011;49010;51.230;-2.306;2023-01-29T20:33:37;5.15;;;2.10;;
62915;SDS011;49010;51.230;-2.306;2023-01-29T20:37:20;10.30;;;3.47;;
62915;SDS011;49010;51.230;-2.306;2023-01-29T20:44:48;6.40;;;2.17;;
62915;SDS011;49010;51.230;-2.306;2023-01-29T20:48:31;4.22;;;2.10;;
62915;SDS011;49010;51.230;-2.306;2023-01-29T20:52:13;6.22;;;2.40;;
62915;SDS011;49010;51.230;-2.306;2023-01-29T20:55:55;7.80;;;2.20;;
62915;SDS011;49010;51.230;-2.306;2023-01-29T20:59:37;4.47;;;1.90;;
62915;SDS011;49010;51.230;-2.306;2023-01-29T21:03:19;4.75;;;2.15;;
62915;SDS011;49010;51.230;-2.306;2023-01-29T21:07:00;5.45;;;2.25;;
62915;SDS011;49010;51.230;-2.306;2023-01-29T21:10:42;6.72;;;2.20;;
62915;SDS011;49010;51.230;-2.306;2023-01-29T21:14:27;4.85;;;1.98;;
62915;SDS011;49010;51.230;-2.306;2023-01-29T21:18:09;7.43;;;3.03;;
62915;SDS011;49010;51.230;-2.306;2023-01-29T21:21:51;8.07;;;3.10;;
62915;SDS011;49010;51.230;-2.306;2023-01-29T21:25:33;5.45;;;2.50;;
62915;SDS011;49010;51.230;-2.306;2023-01-29T21:29:15;4.72;;;2.20;;
62915;SDS011;49010;51.230;-2.306;2023-01-29T21:32:57;4.65;;;1.88;;
62915;SDS011;49010;51.230;-2.306;2023-01-29T21:36:39;6.63;;;1.98;;
62915;SDS011;49010;51.230;-2.306;2023-01-29T21:40:20;5.90;;;2.17;;
62915;SDS011;49010;51.230;-2.306;2023-01-29T21:44:06;5.20;;;1.63;;
62915;SDS011;49010;51.230;-2.306;2023-01-29T21:47:48;6.93;;;2.05;;
62915;SDS011;49010;51.230;-2.306;2023-01-29T21:51:31;2.50;;;1.10;;
62915;SDS011;49010;51.230;-2.306;2023-01-29T21:55:15;5.00;;;1.83;;
62915;SDS011;49010;51.230;-2.306;2023-01-29T21:59:01;5.18;;;1.98;;
62915;SDS011;49010;51.230;-2.306;2023-01-29T22:02:43;8.32;;;1.58;;
62915;SDS011;49010;51.230;-2.306;2023-01-29T22:06:27;7.43;;;2.17;;
62915;SDS011;49010;51.230;-2.306;2023-01-29T22:10:16;6.57;;;2.08;;
62915;SDS011;49010;51.230;-2.306;2023-01-29T22:14:06;8.30;;;2.47;;
62915;SDS011;49010;51.230;-2.306;2023-01-29T22:17:48;3.90;;;1.98;;
62915;SDS011;49010;51.230;-2.306;2023-01-29T22:21:33;4.65;;;2.63;;
62915;SDS011;49010;51.230;-2.306;2023-01-29T22:25:24;5.95;;;3.35;;
62915;SDS011;49010;51.230;-2.306;2023-01-29T22:29:12;8.43;;;3.72;;
62915;SDS011;49010;51.230;-2.306;2023-01-29T22:33:00;9.45;;;3.65;;
62915;SDS011;49010;51.230;-2.306;2023-01-29T22:37:13;6.47;;;3.28;;
62915;SDS011;49010;51.230;-2.306;2023-01-29T22:41:00;4.63;;;2.92;;
62915;SDS011;49010;51.230;-2.306;2023-01-29T22:44:50;16.80;;;3.85;;
62915;SDS011;49010;51.230;-2.306;2023-01-29T22:52:19;10.68;;;3.20;;
62915;SDS011;49010;51.230;-2.306;2023-01-29T22:56:16;9.55;;;3.03;;
62915;SDS011;49010;51.230;-2.306;2023-01-29T22:59:59;12.10;;;3.72;;
62915;SDS011;49010;51.230;-2.306;2023-01-29T23:03:41;5.78;;;2.85;;
62915;SDS011;49010;51.230;-2.306;2023-01-29T23:07:23;9.02;;;2.75;;
62915;SDS011;49010;51.230;-2.306;2023-01-29T23:11:08;7.18;;;2.95;;
62915;SDS011;49010;51.230;-2.306;2023-01-29T23:14:55;10.35;;;3.72;;
62915;SDS011;49010;51.230;-2.306;2023-01-29T23:18:37;5.63;;;2.55;;
62915;SDS011;49010;51.230;-2.306;2023-01-29T23:22:19;7.47;;;2.60;;
62915;SDS011;49010;51.230;-2.306;2023-01-29T23:26:02;5.78;;;2.63;;
62915;SDS011;49010;51.230;-2.306;2023-01-29T23:30:04;5.70;;;2.42;;
62915;SDS011;49010;51.230;-2.306;2023-01-29T23:37:49;7.00;;;2.58;;
62915;SDS011;49010;51.230;-2.306;2023-01-29T23:41:31;5.85;;;2.55;;
62915;SDS011;49010;51.230;-2.306;2023-01-29T23:45:13;11.07;;;2.65;;
62915;SDS011;49010;51.230;-2.306;2023-01-29T23:48:55;12.43;;;3.28;;
62915;SDS011;49010;51.230;-2.306;2023-01-29T23:52:37;4.70;;;2.22;;
62915;SDS011;49010;51.230;-2.306;2023-01-29T23:56:19;7.15;;;2.75;;
